sensor_id;sensor_type;location;lat;lon;timestamp;P1;durP1;ratioP1;P2;durP2;ratioP2
4452;SDS011;2239;48.152;11.584;2024-02-04T00:01:38;7.30;;;2.80;;
4452;SDS011;2239;48.152;11.584;2024-02-04T00:04:04;5.00;;;2.27;;
4452;SDS011;2239;48.152;11.584;2024-02-04T00:06:30;5.77;;;2.77;;
4452;SDS011;2239;48.152;11.584;2024-02-04T00:08:55;4.67;;;2.87;;
4452;SDS011;2239;48.152;11.584;2024-02-04T00:11:21;5.30;;;2.67;;
4452;SDS011;2239;48.152;11.584;2024-02-04T00:13:46;4.93;;;2.33;;
4452;SDS011;2239;48.152;11.584;2024-02-04T00:16:12;3.90;;;2.50;;
4452;SDS011;2239;48.152;11.584;2024-02-04T00:18:37;5.73;;;2.60;;
4452;SDS011;2239;48.152;11.584;2024-02-04T00:21:03;4.67;;;2.77;;
4452;SDS011;2239;48.152;11.584;2024-02-04T00:23:29;5.63;;;2.40;;
4452;SDS011;2239;48.152;11.584;2024-02-04T00:25:54;4.70;;;2.13;;
4452;SDS011;2239;48.152;11.584;2024-02-04T00:28:20;4.90;;;2.37;;
4452;SDS011;2239;48.152;11.584;2024-02-04T00:30:46;4.27;;;2.40;;
4452;SDS011;2239;48.152;11.584;2024-02-04T00:33:11;3.20;;;2.53;;
4452;SDS011;2239;48.152;11.584;2024-02-04T00:35:37;5.20;;;2.27;;
4452;SDS011;2239;48.152;11.584;2024-02-04T00:38:02;4.50;;;2.63;;
4452;SDS011;2239;48.152;11.584;2024-02-04T00:40:28;4.27;;;2.83;;
4452;SDS011;2239;48.152;11.584;2024-02-04T00:42:54;3.43;;;2.20;;
4452;SDS011;2239;48.152;11.584;2024-02-04T00:45:19;4.50;;;2.33;;
4452;SDS011;2239;48.152;11.584;2024-02-04T00:47:45;5.30;;;2.67;;
4452;SDS011;2239;48.152;11.584;2024-02-04T00:50:10;4.03;;;2.60;;
4452;SDS011;2239;48.152;11.584;2024-02-04T00:52:36;5.47;;;2.60;;
4452;SDS011;2239;48.152;11.584;2024-02-04T00:55:03;5.10;;;2.93;;
4452;SDS011;2239;48.152;11.584;2024-02-04T00:57:29;5.93;;;2.50;;
4452;SDS011;2239;48.152;11.584;2024-02-04T00:59:55;4.57;;;2.40;;
4452;SDS011;2239;48.152;11.584;2024-02-04T01:02:20;4.03;;;2.43;;
4452;SDS011;2239;48.152;11.584;2024-02-04T01:04:46;6.03;;;2.90;;
4452;SDS011;2239;48.152;11.584;2024-02-04T01:07:11;5.97;;;2.77;;
4452;SDS011;2239;48.152;11.584;2024-02-04T01:09:37;5.97;;;2.80;;
4452;SDS011;2239;48.152;11.584;2024-02-04T01:12:03;5.37;;;2.63;;
4452;SDS011;2239;48.152;11.584;2024-02-04T01:14:28;4.72;;;2.72;;
4452;SDS011;2239;48.152;11.584;2024-02-04T01:16:54;4.03;;;2.90;;
4452;SDS011;2239;48.152;11.584;2024-02-04T01:19:19;5.83;;;2.90;;
4452;SDS011;2239;48.152;11.584;2024-02-04T01:21:45;6.23;;;2.90;;
4452;SDS011;2239;48.152;11.584;2024-02-04T01:24:10;4.97;;;2.77;;
4452;SDS011;2239;48.152;11.584;2024-02-04T01:26:36;7.73;;;2.80;;
4452;SDS011;2239;48.152;11.584;2024-02-04T01:29:01;7.10;;;2.80;;
4452;SDS011;2239;48.152;11.584;2024-02-04T01:31:27;5.90;;;3.30;;
4452;SDS011;2239;48.152;11.584;2024-02-04T01:33:52;4.37;;;2.97;;
4452;SDS011;2239;48.152;11.584;2024-02-04T01:36:18;6.37;;;2.70;;
4452;SDS011;2239;48.152;11.584;2024-02-04T01:38:44;5.40;;;3.10;;
4452;SDS011;2239;48.152;11.584;2024-02-04T01:41:09;7.10;;;3.20;;
4452;SDS011;2239;48.152;11.584;2024-02-04T01:43:35;6.97;;;3.37;;
4452;SDS011;2239;48.152;11.584;2024-02-04T01:46:00;6.27;;;3.30;;
4452;SDS011;2239;48.152;11.584;2024-02-04T01:48:26;5.93;;;3.05;;
4452;SDS011;2239;48.152;11.584;2024-02-04T01:50:53;7.20;;;3.43;;
4452;SDS011;2239;48.152;11.584;2024-02-04T01:53:20;7.78;;;3.30;;
4452;SDS011;2239;48.152;11.584;2024-02-04T01:55:48;6.80;;;3.07;;
4452;SDS011;2239;48.152;11.584;2024-02-04T01:58:15;6.90;;;3.20;;
4452;SDS011;2239;48.152;11.584;2024-02-04T02:00:40;6.10;;;3.10;;
4452;SDS011;2239;48.152;11.584;2024-02-04T02:03:07;8.90;;;3.38;;
4452;SDS011;2239;48.152;11.584;2024-02-04T02:05:36;6.90;;;3.40;;
4452;SDS011;2239;48.152;11.584;2024-02-04T02:08:01;6.93;;;3.10;;
4452;SDS011;2239;48.152;11.584;2024-02-04T02:10:27;4.10;;;2.77;;
4452;SDS011;2239;48.152;11.584;2024-02-04T02:12:58;5.77;;;2.90;;
4452;SDS011;2239;48.152;11.584;2024-02-04T02:15:32;6.60;;;3.30;;
4452;SDS011;2239;48.152;11.584;2024-02-04T02:18:05;5.30;;;2.60;;
4452;SDS011;2239;48.152;11.584;2024-02-04T02:20:50;6.77;;;2.90;;
4452;SDS011;2239;48.152;11.584;2024-02-04T02:23:35;6.90;;;3.00;;
4452;SDS011;2239;48.152;11.584;2024-02-04T02:26:05;5.43;;;2.90;;
4452;SDS011;2239;48.152;11.584;2024-02-04T02:28:31;3.70;;;2.40;;
4452;SDS011;2239;48.152;11.584;2024-02-04T02:30:57;7.03;;;2.67;;
4452;SDS011;2239;48.152;11.584;2024-02-04T02:33:23;4.83;;;2.70;;
4452;SDS011;2239;48.152;11.584;2024-02-04T02:35:49;4.97;;;2.60;;
4452;SDS011;2239;48.152;11.584;2024-02-04T02:38:33;4.07;;;2.35;;
4452;SDS011;2239;48.152;11.584;2024-02-04T02:41:08;8.13;;;3.30;;
4452;SDS011;2239;48.152;11.584;2024-02-04T02:43:37;5.18;;;2.55;;
4452;SDS011;2239;48.152;11.584;2024-02-04T02:46:05;6.10;;;2.80;;
4452;SDS011;2239;48.152;11.584;2024-02-04T02:48:32;6.13;;;2.53;;
4452;SDS011;2239;48.152;11.584;2024-02-04T02:50:58;6.13;;;2.60;;
4452;SDS011;2239;48.152;11.584;2024-02-04T02:53:23;4.40;;;2.60;;
4452;SDS011;2239;48.152;11.584;2024-02-04T02:55:49;6.80;;;2.27;;
4452;SDS011;2239;48.152;11.584;2024-02-04T02:58:14;4.17;;;2.33;;
4452;SDS011;2239;48.152;11.584;2024-02-04T03:00:40;5.07;;;2.63;;
4452;SDS011;2239;48.152;11.584;2024-02-04T03:03:05;5.97;;;2.87;;
4452;SDS011;2239;48.152;11.584;2024-02-04T03:05:31;6.87;;;2.57;;
4452;SDS011;2239;48.152;11.584;2024-02-04T03:07:57;6.07;;;2.80;;
4452;SDS011;2239;48.152;11.584;2024-02-04T03:10:26;4.57;;;2.63;;
4452;SDS011;2239;48.152;11.584;2024-02-04T03:12:51;5.17;;;2.17;;
4452;SDS011;2239;48.152;11.584;2024-02-04T03:15:17;6.50;;;2.73;;
4452;SDS011;2239;48.152;11.584;2024-02-04T03:17:42;5.40;;;2.20;;
4452;SDS011;2239;48.152;11.584;2024-02-04T03:20:09;6.27;;;2.50;;
4452;SDS011;2239;48.152;11.584;2024-02-04T03:22:35;4.40;;;2.10;;
4452;SDS011;2239;48.152;11.584;2024-02-04T03:25:00;2.33;;;1.70;;
4452;SDS011;2239;48.152;11.584;2024-02-04T03:27:26;5.70;;;2.40;;
4452;SDS011;2239;48.152;11.584;2024-02-04T03:29:51;4.43;;;2.00;;
4452;SDS011;2239;48.152;11.584;2024-02-04T03:32:17;2.40;;;1.80;;
4452;SDS011;2239;48.152;11.584;2024-02-04T03:34:42;3.90;;;1.77;;
4452;SDS011;2239;48.152;11.584;2024-02-04T03:37:08;4.13;;;2.23;;
4452;SDS011;2239;48.152;11.584;2024-02-04T03:39:33;3.83;;;2.00;;
4452;SDS011;2239;48.152;11.584;2024-02-04T03:41:59;5.10;;;2.60;;
4452;SDS011;2239;48.152;11.584;2024-02-04T03:44:24;2.63;;;1.80;;
4452;SDS011;2239;48.152;11.584;2024-02-04T03:46:50;5.80;;;2.43;;
4452;SDS011;2239;48.152;11.584;2024-02-04T03:49:16;4.10;;;2.10;;
4452;SDS011;2239;48.152;11.584;2024-02-04T03:51:42;5.80;;;2.40;;
4452;SDS011;2239;48.152;11.584;2024-02-04T03:54:08;5.50;;;2.40;;
4452;SDS011;2239;48.152;11.584;2024-02-04T03:56:33;3.60;;;1.93;;
4452;SDS011;2239;48.152;11.584;2024-02-04T03:58:59;6.17;;;1.80;;
4452;SDS011;2239;48.152;11.584;2024-02-04T04:01:24;5.00;;;2.30;;
4452;SDS011;2239;48.152;11.584;2024-02-04T04:03:50;3.50;;;2.10;;
4452;SDS011;2239;48.152;11.584;2024-02-04T04:06:15;4.30;;;2.47;;
4452;SDS011;2239;48.152;11.584;2024-02-04T04:08:41;3.73;;;1.90;;
4452;SDS011;2239;48.152;11.584;2024-02-04T04:11:07;6.53;;;1.90;;
4452;SDS011;2239;48.152;11.584;2024-02-04T04:13:34;5.00;;;2.10;;
4452;SDS011;2239;48.152;11.584;2024-02-04T04:16:00;3.60;;;2.07;;
4452;SDS011;2239;48.152;11.584;2024-02-04T04:18:26;3.27;;;1.80;;
4452;SDS011;2239;48.152;11.584;2024-02-04T04:20:52;4.63;;;1.70;;
4452;SDS011;2239;48.152;11.584;2024-02-04T04:23:17;3.20;;;1.73;;
4452;SDS011;2239;48.152;11.584;2024-02-04T04:25:43;5.43;;;2.20;;
4452;SDS011;2239;48.152;11.584;2024-02-04T04:28:08;5.23;;;2.50;;
4452;SDS011;2239;48.152;11.584;2024-02-04T04:30:34;3.43;;;1.90;;
4452;SDS011;2239;48.152;11.584;2024-02-04T04:32:59;3.40;;;2.00;;
4452;SDS011;2239;48.152;11.584;2024-02-04T04:35:25;2.30;;;1.63;;
4452;SDS011;2239;48.152;11.584;2024-02-04T04:37:51;4.30;;;2.13;;
4452;SDS011;2239;48.152;11.584;2024-02-04T04:40:23;2.30;;;1.60;;
4452;SDS011;2239;48.152;11.584;2024-02-04T04:42:52;2.80;;;1.70;;
4452;SDS011;2239;48.152;11.584;2024-02-04T04:45:17;2.13;;;1.60;;
4452;SDS011;2239;48.152;11.584;2024-02-04T04:47:43;4.33;;;2.00;;
4452;SDS011;2239;48.152;11.584;2024-02-04T04:50:09;4.60;;;1.77;;
4452;SDS011;2239;48.152;11.584;2024-02-04T04:52:34;4.10;;;1.70;;
4452;SDS011;2239;48.152;11.584;2024-02-04T04:55:00;4.30;;;1.67;;
4452;SDS011;2239;48.152;11.584;2024-02-04T04:57:25;1.90;;;1.50;;
4452;SDS011;2239;48.152;11.584;2024-02-04T04:59:51;2.37;;;1.73;;
4452;SDS011;2239;48.152;11.584;2024-02-04T05:02:17;3.43;;;1.53;;
4452;SDS011;2239;48.152;11.584;2024-02-04T05:04:43;1.70;;;1.50;;
4452;SDS011;2239;48.152;11.584;2024-02-04T05:07:12;1.90;;;1.40;;
4452;SDS011;2239;48.152;11.584;2024-02-04T05:09:38;2.00;;;1.33;;
4452;SDS011;2239;48.152;11.584;2024-02-04T05:12:04;4.73;;;1.93;;
4452;SDS011;2239;48.152;11.584;2024-02-04T05:14:29;4.20;;;1.33;;
4452;SDS011;2239;48.152;11.584;2024-02-04T05:16:55;1.77;;;1.10;;
4452;SDS011;2239;48.152;11.584;2024-02-04T05:19:20;2.40;;;1.53;;
4452;SDS011;2239;48.152;11.584;2024-02-04T05:21:46;2.10;;;1.23;;
4452;SDS011;2239;48.152;11.584;2024-02-04T05:24:12;2.40;;;1.43;;
4452;SDS011;2239;48.152;11.584;2024-02-04T05:26:37;2.30;;;1.30;;
4452;SDS011;2239;48.152;11.584;2024-02-04T05:29:03;6.30;;;1.63;;
4452;SDS011;2239;48.152;11.584;2024-02-04T05:31:28;2.30;;;1.40;;
4452;SDS011;2239;48.152;11.584;2024-02-04T05:33:55;3.63;;;1.67;;
4452;SDS011;2239;48.152;11.584;2024-02-04T05:36:21;3.53;;;1.73;;
4452;SDS011;2239;48.152;11.584;2024-02-04T05:38:46;3.10;;;1.40;;
4452;SDS011;2239;48.152;11.584;2024-02-04T05:41:12;2.80;;;1.50;;
4452;SDS011;2239;48.152;11.584;2024-02-04T05:43:38;2.83;;;1.40;;
4452;SDS011;2239;48.152;11.584;2024-02-04T05:46:04;5.00;;;1.50;;
4452;SDS011;2239;48.152;11.584;2024-02-04T05:48:29;2.63;;;1.50;;
4452;SDS011;2239;48.152;11.584;2024-02-04T05:50:55;3.57;;;1.77;;
4452;SDS011;2239;48.152;11.584;2024-02-04T05:53:20;3.10;;;1.53;;
4452;SDS011;2239;48.152;11.584;2024-02-04T05:55:46;3.20;;;1.50;;
4452;SDS011;2239;48.152;11.584;2024-02-04T05:58:12;2.23;;;1.50;;
4452;SDS011;2239;48.152;11.584;2024-02-04T06:00:39;3.20;;;1.70;;
4452;SDS011;2239;48.152;11.584;2024-02-04T06:03:04;6.23;;;1.80;;
4452;SDS011;2239;48.152;11.584;2024-02-04T06:05:30;4.10;;;1.47;;
4452;SDS011;2239;48.152;11.584;2024-02-04T06:07:56;4.83;;;1.90;;
4452;SDS011;2239;48.152;11.584;2024-02-04T06:10:24;3.30;;;1.50;;
4452;SDS011;2239;48.152;11.584;2024-02-04T06:12:49;3.43;;;2.10;;
4452;SDS011;2239;48.152;11.584;2024-02-04T06:15:15;6.53;;;1.77;;
4452;SDS011;2239;48.152;11.584;2024-02-04T06:17:41;4.33;;;1.77;;
4452;SDS011;2239;48.152;11.584;2024-02-04T06:20:07;5.10;;;2.07;;
4452;SDS011;2239;48.152;11.584;2024-02-04T06:22:36;3.40;;;1.67;;
4452;SDS011;2239;48.152;11.584;2024-02-04T06:25:02;3.70;;;1.83;;
4452;SDS011;2239;48.152;11.584;2024-02-04T06:27:28;7.27;;;1.90;;
4452;SDS011;2239;48.152;11.584;2024-02-04T06:29:54;3.80;;;1.40;;
4452;SDS011;2239;48.152;11.584;2024-02-04T06:32:20;2.90;;;1.40;;
4452;SDS011;2239;48.152;11.584;2024-02-04T06:34:46;3.33;;;1.83;;
4452;SDS011;2239;48.152;11.584;2024-02-04T06:37:12;5.87;;;2.07;;
4452;SDS011;2239;48.152;11.584;2024-02-04T06:39:37;5.03;;;1.50;;
4452;SDS011;2239;48.152;11.584;2024-02-04T06:42:03;6.77;;;2.17;;
4452;SDS011;2239;48.152;11.584;2024-02-04T06:44:29;5.30;;;2.03;;
4452;SDS011;2239;48.152;11.584;2024-02-04T06:46:54;6.70;;;1.90;;
4452;SDS011;2239;48.152;11.584;2024-02-04T06:49:20;2.77;;;1.47;;
4452;SDS011;2239;48.152;11.584;2024-02-04T06:51:46;3.30;;;1.80;;
4452;SDS011;2239;48.152;11.584;2024-02-04T06:54:12;3.50;;;2.00;;
4452;SDS011;2239;48.152;11.584;2024-02-04T06:56:38;3.53;;;1.90;;
4452;SDS011;2239;48.152;11.584;2024-02-04T06:59:04;5.30;;;1.80;;
4452;SDS011;2239;48.152;11.584;2024-02-04T07:01:30;7.50;;;2.20;;
4452;SDS011;2239;48.152;11.584;2024-02-04T07:03:55;4.50;;;1.93;;
4452;SDS011;2239;48.152;11.584;2024-02-04T07:06:21;3.27;;;2.00;;
4452;SDS011;2239;48.152;11.584;2024-02-04T07:08:46;6.80;;;2.00;;
4452;SDS011;2239;48.152;11.584;2024-02-04T07:11:12;5.53;;;2.33;;
4452;SDS011;2239;48.152;11.584;2024-02-04T07:13:37;6.60;;;2.23;;
4452;SDS011;2239;48.152;11.584;2024-02-04T07:16:03;3.83;;;1.90;;
4452;SDS011;2239;48.152;11.584;2024-02-04T07:18:28;5.60;;;2.43;;
4452;SDS011;2239;48.152;11.584;2024-02-04T07:20:54;7.43;;;2.43;;
4452;SDS011;2239;48.152;11.584;2024-02-04T07:23:20;4.17;;;2.27;;
4452;SDS011;2239;48.152;11.584;2024-02-04T07:25:46;6.30;;;2.30;;
4452;SDS011;2239;48.152;11.584;2024-02-04T07:28:12;7.43;;;2.30;;
4452;SDS011;2239;48.152;11.584;2024-02-04T07:30:37;6.30;;;2.40;;
4452;SDS011;2239;48.152;11.584;2024-02-04T07:33:03;6.83;;;2.20;;
4452;SDS011;2239;48.152;11.584;2024-02-04T07:35:29;6.37;;;2.47;;
4452;SDS011;2239;48.152;11.584;2024-02-04T07:37:54;8.30;;;2.80;;
4452;SDS011;2239;48.152;11.584;2024-02-04T07:40:23;10.17;;;2.60;;
4452;SDS011;2239;48.152;11.584;2024-02-04T07:42:48;4.50;;;2.40;;
4452;SDS011;2239;48.152;11.584;2024-02-04T07:45:14;5.83;;;3.30;;
4452;SDS011;2239;48.152;11.584;2024-02-04T07:47:40;4.70;;;2.60;;
4452;SDS011;2239;48.152;11.584;2024-02-04T07:50:06;7.20;;;3.00;;
4452;SDS011;2239;48.152;11.584;2024-02-04T07:52:32;5.63;;;2.50;;
4452;SDS011;2239;48.152;11.584;2024-02-04T07:54:58;5.83;;;3.30;;
4452;SDS011;2239;48.152;11.584;2024-02-04T07:57:23;5.43;;;2.60;;
4452;SDS011;2239;48.152;11.584;2024-02-04T07:59:48;19.90;;;2.97;;
4452;SDS011;2239;48.152;11.584;2024-02-04T08:02:14;6.73;;;2.97;;
4452;SDS011;2239;48.152;11.584;2024-02-04T08:04:40;5.30;;;2.60;;
4452;SDS011;2239;48.152;11.584;2024-02-04T08:07:06;4.73;;;2.47;;
4452;SDS011;2239;48.152;11.584;2024-02-04T08:09:31;9.13;;;2.60;;
4452;SDS011;2239;48.152;11.584;2024-02-04T08:11:57;9.40;;;2.87;;
4452;SDS011;2239;48.152;11.584;2024-02-04T08:14:22;5.10;;;2.70;;
4452;SDS011;2239;48.152;11.584;2024-02-04T08:16:48;7.90;;;2.77;;
4452;SDS011;2239;48.152;11.584;2024-02-04T08:19:14;7.63;;;2.70;;
4452;SDS011;2239;48.152;11.584;2024-02-04T08:21:39;3.90;;;2.43;;
4452;SDS011;2239;48.152;11.584;2024-02-04T08:24:05;4.90;;;2.27;;
4452;SDS011;2239;48.152;11.584;2024-02-04T08:26:31;4.33;;;2.07;;
4452;SDS011;2239;48.152;11.584;2024-02-04T08:28:56;6.83;;;2.40;;
4452;SDS011;2239;48.152;11.584;2024-02-04T08:31:22;9.03;;;2.53;;
4452;SDS011;2239;48.152;11.584;2024-02-04T08:33:47;5.90;;;2.10;;
4452;SDS011;2239;48.152;11.584;2024-02-04T08:36:13;4.60;;;2.20;;
4452;SDS011;2239;48.152;11.584;2024-02-04T08:38:38;3.87;;;1.90;;
4452;SDS011;2239;48.152;11.584;2024-02-04T08:41:04;4.43;;;2.03;;
4452;SDS011;2239;48.152;11.584;2024-02-04T08:43:29;7.43;;;1.93;;
4452;SDS011;2239;48.152;11.584;2024-02-04T08:45:55;5.07;;;1.93;;
4452;SDS011;2239;48.152;11.584;2024-02-04T08:48:21;5.07;;;2.37;;
4452;SDS011;2239;48.152;11.584;2024-02-04T08:50:46;3.70;;;2.20;;
4452;SDS011;2239;48.152;11.584;2024-02-04T08:53:12;6.37;;;1.97;;
4452;SDS011;2239;48.152;11.584;2024-02-04T08:55:37;5.10;;;2.03;;
4452;SDS011;2239;48.152;11.584;2024-02-04T08:58:03;4.00;;;1.70;;
4452;SDS011;2239;48.152;11.584;2024-02-04T09:00:29;5.27;;;2.03;;
4452;SDS011;2239;48.152;11.584;2024-02-04T09:02:54;3.57;;;1.77;;
4452;SDS011;2239;48.152;11.584;2024-02-04T09:05:20;5.23;;;2.03;;
4452;SDS011;2239;48.152;11.584;2024-02-04T09:07:46;6.83;;;1.87;;
4452;SDS011;2239;48.152;11.584;2024-02-04T09:10:11;4.30;;;2.47;;
4452;SDS011;2239;48.152;11.584;2024-02-04T09:12:37;5.53;;;1.90;;
4452;SDS011;2239;48.152;11.584;2024-02-04T09:15:03;10.20;;;2.67;;
4452;SDS011;2239;48.152;11.584;2024-02-04T09:17:29;6.23;;;2.50;;
4452;SDS011;2239;48.152;11.584;2024-02-04T09:19:57;6.10;;;2.17;;
4452;SDS011;2239;48.152;11.584;2024-02-04T09:22:22;4.20;;;2.30;;
4452;SDS011;2239;48.152;11.584;2024-02-04T09:24:48;4.53;;;2.00;;
4452;SDS011;2239;48.152;11.584;2024-02-04T09:27:13;7.17;;;2.10;;
4452;SDS011;2239;48.152;11.584;2024-02-04T09:29:39;4.87;;;2.17;;
4452;SDS011;2239;48.152;11.584;2024-02-04T09:32:04;5.43;;;1.97;;
4452;SDS011;2239;48.152;11.584;2024-02-04T09:34:30;10.53;;;2.33;;
4452;SDS011;2239;48.152;11.584;2024-02-04T09:36:56;3.30;;;2.00;;
4452;SDS011;2239;48.152;11.584;2024-02-04T09:39:21;5.80;;;1.90;;
4452;SDS011;2239;48.152;11.584;2024-02-04T09:41:47;4.63;;;1.83;;
4452;SDS011;2239;48.152;11.584;2024-02-04T09:44:12;4.80;;;2.23;;
4452;SDS011;2239;48.152;11.584;2024-02-04T09:46:39;4.87;;;2.70;;
4452;SDS011;2239;48.152;11.584;2024-02-04T09:49:04;6.40;;;2.87;;
4452;SDS011;2239;48.152;11.584;2024-02-04T09:51:30;4.17;;;2.27;;
4452;SDS011;2239;48.152;11.584;2024-02-04T09:53:57;7.37;;;2.67;;
4452;SDS011;2239;48.152;11.584;2024-02-04T09:56:27;7.47;;;2.43;;
4452;SDS011;2239;48.152;11.584;2024-02-04T09:58:55;9.70;;;2.50;;
4452;SDS011;2239;48.152;11.584;2024-02-04T10:01:21;3.87;;;2.27;;
4452;SDS011;2239;48.152;11.584;2024-02-04T10:03:48;6.10;;;2.60;;
4452;SDS011;2239;48.152;11.584;2024-02-04T10:06:14;6.37;;;2.50;;
4452;SDS011;2239;48.152;11.584;2024-02-04T10:08:39;5.93;;;2.17;;
4452;SDS011;2239;48.152;11.584;2024-02-04T10:11:05;4.10;;;1.80;;
4452;SDS011;2239;48.152;11.584;2024-02-04T10:13:41;6.00;;;2.60;;
4452;SDS011;2239;48.152;11.584;2024-02-04T10:16:10;7.13;;;2.53;;
4452;SDS011;2239;48.152;11.584;2024-02-04T10:18:37;7.20;;;2.83;;
4452;SDS011;2239;48.152;11.584;2024-02-04T10:21:02;6.23;;;3.17;;
4452;SDS011;2239;48.152;11.584;2024-02-04T10:23:28;10.30;;;2.83;;
4452;SDS011;2239;48.152;11.584;2024-02-04T10:25:57;4.27;;;2.63;;
4452;SDS011;2239;48.152;11.584;2024-02-04T10:28:26;5.73;;;2.70;;
4452;SDS011;2239;48.152;11.584;2024-02-04T10:30:52;6.80;;;2.73;;
4452;SDS011;2239;48.152;11.584;2024-02-04T10:33:17;7.37;;;2.47;;
4452;SDS011;2239;48.152;11.584;2024-02-04T10:35:43;5.93;;;2.47;;
4452;SDS011;2239;48.152;11.584;2024-02-04T10:38:08;5.07;;;2.40;;
4452;SDS011;2239;48.152;11.584;2024-02-04T10:40:35;6.57;;;2.83;;
4452;SDS011;2239;48.152;11.584;2024-02-04T10:43:03;9.97;;;3.13;;
4452;SDS011;2239;48.152;11.584;2024-02-04T10:45:31;5.30;;;2.30;;
4452;SDS011;2239;48.152;11.584;2024-02-04T10:47:57;5.73;;;2.93;;
4452;SDS011;2239;48.152;11.584;2024-02-04T10:50:26;8.40;;;3.20;;
4452;SDS011;2239;48.152;11.584;2024-02-04T10:52:54;5.63;;;2.80;;
4452;SDS011;2239;48.152;11.584;2024-02-04T10:55:28;15.50;;;3.03;;
4452;SDS011;2239;48.152;11.584;2024-02-04T10:57:55;4.17;;;2.50;;
4452;SDS011;2239;48.152;11.584;2024-02-04T11:00:21;5.27;;;2.67;;
4452;SDS011;2239;48.152;11.584;2024-02-04T11:02:47;6.77;;;2.90;;
4452;SDS011;2239;48.152;11.584;2024-02-04T11:05:16;6.03;;;2.60;;
4452;SDS011;2239;48.152;11.584;2024-02-04T11:07:42;6.17;;;2.50;;
4452;SDS011;2239;48.152;11.584;2024-02-04T11:10:08;5.50;;;2.40;;
4452;SDS011;2239;48.152;11.584;2024-02-04T11:12:36;7.33;;;2.43;;
4452;SDS011;2239;48.152;11.584;2024-02-04T11:15:05;8.50;;;3.00;;
4452;SDS011;2239;48.152;11.584;2024-02-04T11:26:01;3.93;;;1.70;;
4452;SDS011;2239;48.152;11.584;2024-02-04T11:28:29;4.33;;;1.67;;
4452;SDS011;2239;48.152;11.584;2024-02-04T11:30:55;4.07;;;1.90;;
4452;SDS011;2239;48.152;11.584;2024-02-04T11:33:21;2.90;;;1.40;;
4452;SDS011;2239;48.152;11.584;2024-02-04T11:36:02;2.20;;;1.40;;
4452;SDS011;2239;48.152;11.584;2024-02-04T11:38:29;3.77;;;1.43;;
4452;SDS011;2239;48.152;11.584;2024-02-04T11:40:56;8.37;;;1.67;;
4452;SDS011;2239;48.152;11.584;2024-02-04T11:43:23;1.90;;;1.43;;
4452;SDS011;2239;48.152;11.584;2024-02-04T11:45:51;7.27;;;1.93;;
4452;SDS011;2239;48.152;11.584;2024-02-04T11:48:17;6.03;;;1.30;;
4452;SDS011;2239;48.152;11.584;2024-02-04T11:50:43;2.70;;;1.20;;
4452;SDS011;2239;48.152;11.584;2024-02-04T11:53:16;6.90;;;1.90;;
4452;SDS011;2239;48.152;11.584;2024-02-04T11:55:43;2.60;;;1.47;;
4452;SDS011;2239;48.152;11.584;2024-02-04T11:58:10;2.03;;;1.27;;
4452;SDS011;2239;48.152;11.584;2024-02-04T12:00:37;1.50;;;1.20;;
4452;SDS011;2239;48.152;11.584;2024-02-04T12:03:06;3.53;;;1.03;;
4452;SDS011;2239;48.152;11.584;2024-02-04T12:05:33;2.10;;;1.33;;
4452;SDS011;2239;48.152;11.584;2024-02-04T12:08:04;2.87;;;1.40;;
4452;SDS011;2239;48.152;11.584;2024-02-04T12:10:32;3.57;;;1.00;;
4452;SDS011;2239;48.152;11.584;2024-02-04T12:12:58;2.90;;;1.50;;
4452;SDS011;2239;48.152;11.584;2024-02-04T12:15:26;2.27;;;0.97;;
4452;SDS011;2239;48.152;11.584;2024-02-04T12:17:53;2.60;;;1.30;;
4452;SDS011;2239;48.152;11.584;2024-02-04T12:20:19;3.60;;;1.40;;
4452;SDS011;2239;48.152;11.584;2024-02-04T12:22:45;2.13;;;1.37;;
4452;SDS011;2239;48.152;11.584;2024-02-04T12:25:10;2.03;;;1.27;;
4452;SDS011;2239;48.152;11.584;2024-02-04T12:27:36;2.23;;;1.23;;
4452;SDS011;2239;48.152;11.584;2024-02-04T12:30:02;3.60;;;1.13;;
4452;SDS011;2239;48.152;11.584;2024-02-04T12:32:30;1.57;;;1.00;;
4452;SDS011;2239;48.152;11.584;2024-02-04T12:34:55;1.37;;;1.00;;
4452;SDS011;2239;48.152;11.584;2024-02-04T12:37:21;2.70;;;1.10;;
4452;SDS011;2239;48.152;11.584;2024-02-04T12:39:47;1.07;;;0.80;;
4452;SDS011;2239;48.152;11.584;2024-02-04T12:42:16;1.97;;;1.37;;
4452;SDS011;2239;48.152;11.584;2024-02-04T12:44:44;2.40;;;1.20;;
4452;SDS011;2239;48.152;11.584;2024-02-04T12:47:11;1.87;;;1.10;;
4452;SDS011;2239;48.152;11.584;2024-02-04T12:49:37;1.50;;;0.90;;
4452;SDS011;2239;48.152;11.584;2024-02-04T12:52:06;1.97;;;0.80;;
4452;SDS011;2239;48.152;11.584;2024-02-04T12:54:41;6.57;;;1.53;;
4452;SDS011;2239;48.152;11.584;2024-02-04T12:57:08;1.83;;;1.10;;
4452;SDS011;2239;48.152;11.584;2024-02-04T12:59:36;5.33;;;1.07;;
4452;SDS011;2239;48.152;11.584;2024-02-04T13:02:03;3.90;;;1.67;;
4452;SDS011;2239;48.152;11.584;2024-02-04T13:04:33;1.93;;;1.30;;
4452;SDS011;2239;48.152;11.584;2024-02-04T13:07:07;2.70;;;1.23;;
4452;SDS011;2239;48.152;11.584;2024-02-04T13:09:34;1.80;;;1.20;;
4452;SDS011;2239;48.152;11.584;2024-02-04T13:12:03;2.70;;;1.20;;
4452;SDS011;2239;48.152;11.584;2024-02-04T13:14:33;2.63;;;1.33;;
4452;SDS011;2239;48.152;11.584;2024-02-04T13:16:59;1.70;;;1.10;;
4452;SDS011;2239;48.152;11.584;2024-02-04T13:19:31;1.47;;;1.10;;
4452;SDS011;2239;48.152;11.584;2024-02-04T13:22:06;1.37;;;1.10;;
4452;SDS011;2239;48.152;11.584;2024-02-04T13:24:34;3.13;;;1.00;;
4452;SDS011;2239;48.152;11.584;2024-02-04T13:27:00;1.43;;;0.83;;
4452;SDS011;2239;48.152;11.584;2024-02-04T13:29:26;2.30;;;1.03;;
4452;SDS011;2239;48.152;11.584;2024-02-04T13:31:52;1.83;;;1.00;;
4452;SDS011;2239;48.152;11.584;2024-02-04T13:34:17;1.77;;;1.10;;
4452;SDS011;2239;48.152;11.584;2024-02-04T13:36:44;1.27;;;1.00;;
4452;SDS011;2239;48.152;11.584;2024-02-04T13:39:10;1.80;;;1.30;;
4452;SDS011;2239;48.152;11.584;2024-02-04T13:41:37;2.50;;;1.33;;
4452;SDS011;2239;48.152;11.584;2024-02-04T13:44:05;3.30;;;1.63;;
4452;SDS011;2239;48.152;11.584;2024-02-04T13:46:31;3.17;;;1.27;;
4452;SDS011;2239;48.152;11.584;2024-02-04T13:48:57;3.60;;;1.53;;
4452;SDS011;2239;48.152;11.584;2024-02-04T13:51:23;3.00;;;1.17;;
4452;SDS011;2239;48.152;11.584;2024-02-04T13:53:48;3.60;;;1.17;;
4452;SDS011;2239;48.152;11.584;2024-02-04T13:56:14;3.63;;;1.20;;
4452;SDS011;2239;48.152;11.584;2024-02-04T13:58:40;1.43;;;1.00;;
4452;SDS011;2239;48.152;11.584;2024-02-04T14:01:05;9.27;;;1.50;;
4452;SDS011;2239;48.152;11.584;2024-02-04T14:03:31;2.63;;;1.10;;
4452;SDS011;2239;48.152;11.584;2024-02-04T14:05:57;2.67;;;1.10;;
4452;SDS011;2239;48.152;11.584;2024-02-04T14:08:22;3.07;;;1.53;;
4452;SDS011;2239;48.152;11.584;2024-02-04T14:10:48;3.97;;;1.33;;
4452;SDS011;2239;48.152;11.584;2024-02-04T14:13:14;2.37;;;1.13;;
4452;SDS011;2239;48.152;11.584;2024-02-04T14:15:39;2.30;;;1.07;;
4452;SDS011;2239;48.152;11.584;2024-02-04T14:18:06;5.90;;;1.30;;
4452;SDS011;2239;48.152;11.584;2024-02-04T14:20:32;2.37;;;1.20;;
4452;SDS011;2239;48.152;11.584;2024-02-04T14:22:57;4.67;;;1.70;;
4452;SDS011;2239;48.152;11.584;2024-02-04T14:25:23;2.03;;;0.90;;
4452;SDS011;2239;48.152;11.584;2024-02-04T14:27:49;1.37;;;1.00;;
4452;SDS011;2239;48.152;11.584;2024-02-04T14:30:15;1.27;;;1.00;;
4452;SDS011;2239;48.152;11.584;2024-02-04T14:32:41;7.60;;;1.40;;
4452;SDS011;2239;48.152;11.584;2024-02-04T14:35:07;3.53;;;1.30;;
4452;SDS011;2239;48.152;11.584;2024-02-04T14:37:34;1.20;;;1.10;;
4452;SDS011;2239;48.152;11.584;2024-02-04T14:40:00;1.60;;;1.00;;
4452;SDS011;2239;48.152;11.584;2024-02-04T14:42:27;3.10;;;0.90;;
4452;SDS011;2239;48.152;11.584;2024-02-04T14:44:53;2.53;;;1.50;;
4452;SDS011;2239;48.152;11.584;2024-02-04T14:47:18;4.00;;;1.30;;
4452;SDS011;2239;48.152;11.584;2024-02-04T14:49:44;3.63;;;1.20;;
4452;SDS011;2239;48.152;11.584;2024-02-04T14:52:09;2.40;;;1.40;;
4452;SDS011;2239;48.152;11.584;2024-02-04T14:54:36;3.40;;;1.37;;
4452;SDS011;2239;48.152;11.584;2024-02-04T14:57:01;1.87;;;1.20;;
4452;SDS011;2239;48.152;11.584;2024-02-04T14:59:27;2.90;;;1.20;;
4452;SDS011;2239;48.152;11.584;2024-02-04T15:01:52;3.00;;;1.07;;
4452;SDS011;2239;48.152;11.584;2024-02-04T15:04:18;4.10;;;1.07;;